Latest Weather Observations for Dubbo

IDN60801

Issued at 7:03 pm EST Saturday 2 July 2016 (issued every 30 minutes, with the page automatically refreshed every 10 minutes)

About weather observations | Map of weather stations | Latest weather observations for NSW | Other Formats
Station Details ID: 065070 Name: DUBBO AIRPORT AWS Lat: -32.22 Lon: 148.58 Height: 284.0 m
Data from the previous 72 hours. | See also: Recent months at Dubbo
Date/Time
EST
Temp
°C
App
Temp
°C
Dew
Point
°C
Rel
Hum
%
Delta-T
°C
Wind Press
QNH
hPa
Press
MSL
hPa
Rain since
9am
mm
Dir  Spd
km/h
Gust
km/h
Spd
kts
Gust
kts
02/07:00pm 8.9 5.8 3.5 69 2.4 S 9 11 5 6 1028.4 1028.8 0.0
02/06:30pm 10.6 6.8 4.1 64 2.9 S 13 19 7 10 1028.3 1028.7 0.0
02/06:00pm 10.4 7.0 4.1 65 2.8 S 11 17 6 9 1028.1 1028.5 0.0
02/05:30pm 10.4 6.6 4.1 65 2.8 S 13 19 7 10 1027.9 1028.3 0.0
02/05:00pm 9.7 5.4 3.4 65 2.8 S 15 22 8 12 1027.5 1027.9 0.0
02/04:30pm 10.8 5.6 3.8 62 3.1 S 20 30 11 16 1027.2 1027.6 0.0
02/04:00pm 11.9 6.8 4.2 59 3.5 SSW 20 26 11 14 1026.9 1027.4 0.0
02/03:30pm 12.8 7.8 4.5 57 3.9 S 20 32 11 17 1026.7 1027.2 0.0
02/03:00pm 11.9 6.7 3.7 57 3.7 S 20 26 11 14 1026.5 1027.0 0.0
02/02:30pm 13.1 8.0 4.3 55 4.1 S 20 30 11 16 1026.3 1026.7 0.0
02/02:00pm 12.1 7.2 3.9 57 3.7 S 19 26 10 14 1026.4 1026.8 0.0
02/01:30pm 12.7 8.2 4.2 56 3.9 SSE 17 22 9 12 1026.5 1027.0 0.0
02/01:00pm 13.0 8.2 4.7 57 3.9 SSE 19 33 10 18 1026.7 1027.2 0.0
02/12:30pm 12.4 7.5 3.9 56 3.9 SSE 19 28 10 15 1027.2 1027.6 0.0
02/12:00pm 11.5 6.9 3.8 59 3.5 SSE 17 24 9 13 1027.7 1028.1 0.0
02/11:30am 12.2 7.8 4.9 61 3.4 SSW 17 22 9 12 1028.1 1028.5 0.0
02/11:00am 10.9 6.8 4.4 64 2.9 S 15 20 8 11 1028.3 1028.7 0.0
02/10:30am 10.5 5.7 4.4 66 2.8 SSE 19 28 10 15 1028.4 1028.8 0.0
02/10:00am 10.1 6.2 5.5 73 2.1 SSE 15 19 8 10 1028.5 1028.9 0.0
02/09:30am 9.4 6.4 5.9 79 1.6 SSW 11 15 6 8 1028.5 1028.9 0.0
02/09:00am 8.9 6.0 6.3 84 1.2 SW 11 15 6 8 1028.2 1028.6 0.2
02/08:30am 8.5 5.6 6.3 86 1.0 SSW 11 20 6 11 1028.1 1028.5 0.2
02/08:00am 7.9 5.5 6.8 93 0.5 SW 9 13 5 7 1027.7 1028.1 0.2
02/07:30am 7.6 5.1 6.5 93 0.5 SW 9 11 5 6 1027.5 1027.9 0.2
02/07:00am 7.3 4.7 6.2 93 0.5 SW 9 11 5 6 1027.2 1027.6 0.2
02/06:30am 7.6 5.1 6.5 93 0.5 SW 9 13 5 7 1026.8 1027.3 0.2
02/06:00am 7.8 4.9 6.7 93 0.5 WSW 11 15 6 8 1026.5 1027.0 0.2
02/05:30am 7.9 5.1 7.0 94 0.4 WSW 11 15 6 8 1026.2 1026.6 0.2
02/05:00am 7.9 4.7 7.0 94 0.4 SW 13 15 7 8 1026.1 1026.5 0.2
02/04:30am 7.8 4.7 7.1 95 0.3 SW 13 17 7 9 1026.0 1026.4 0.2
02/04:00am 7.6 4.4 6.9 95 0.3 SW 13 15 7 8 1025.9 1026.3 0.2
02/03:30am 7.6 4.0 6.9 95 0.3 WSW 15 17 8 9 1026.0 1026.4 0.2
02/03:00am 7.6 4.8 7.0 96 0.3 SW 11 15 6 8 1026.2 1026.6 0.2
02/02:30am 7.4 4.6 6.8 96 0.3 WSW 11 15 6 8 1026.1 1026.5 0.2
02/02:00am 7.3 3.7 6.7 96 0.3 W 15 17 8 9 1026.2 1026.6 0.2
02/01:30am 7.2 3.6 6.6 96 0.3 SW 15 19 8 10 1026.1 1026.5 0.2
02/01:00am 7.0 3.4 6.7 98 0.1 SW 15 17 8 9 1026.0 1026.4 0.2
02/12:30am 6.7 3.4 6.4 98 0.1 WSW 13 17 7 9 1026.1 1026.5 0.2
02/12:00am 5.3 2.8 5.0 98 0.1 WSW 7 9 4 5 1026.2 1026.6 0.2
 
Date/Time
EST
Temp
°C
App
Temp
°C
Dew
Point
°C
Rel
Hum
%
Delta-T
°C
Wind Press
QNH
hPa
Press
MSL
hPa
Rain since
9am
mm
Dir  Spd
km/h
Gust
km/h
Spd
kts
Gust
kts
01/11:57pm 5.2 2.7 4.9 98 0.1 WSW 7 9 4 5 1026.1 1026.5 0.2
01/11:30pm 4.4 1.4 4.0 97 0.2 SW 9 11 5 6 1026.0 1026.4 0.2
01/11:00pm 3.7 0.5 3.1 96 0.2 WSW 9 9 5 5 1026.0 1026.4 0.2
01/10:30pm 4.9 2.4 4.5 97 0.2 SW 7 9 4 5 1025.8 1026.2 0.2
01/10:00pm 4.1 0.5 3.1 93 0.4 WNW 11 13 6 7 1025.7 1026.1 0.2
01/09:30pm 6.2 4.0 5.5 95 0.3 WNW 6 7 3 4 1025.7 1026.1 0.2
01/09:27pm 5.9 3.4 5.0 94 0.4 WNW 7 9 4 5 1025.7 1026.1 0.2
01/09:00pm 6.9 4.2 5.8 93 0.5 WNW 9 11 5 6 1025.7 1026.1 0.2
01/08:30pm 7.9 5.5 6.8 93 0.5 W 9 9 5 5 1025.8 1026.2 0.2
01/08:00pm 8.0 5.9 6.6 91 0.7 W 7 7 4 4 1025.6 1026.0 0.2
01/07:30pm 8.0 5.5 6.6 91 0.7 W 9 11 5 6 1025.4 1025.8 0.2
01/07:20pm 8.0 6.4 6.5 90 0.7 WSW 4 9 2 5 1025.3 1025.7 0.2
01/07:17pm 8.0 6.8 6.5 90 0.7 SW 2 9 1 5 1025.3 1025.7 0.2
01/07:04pm 8.1 5.6 6.4 89 0.8 S 9 13 5 7 1025.0 1025.4 0.2
01/07:00pm 8.2 5.6 6.3 88 0.9 SSW 9 13 5 7 1025.1 1025.5 0.0
01/06:30pm 8.7 5.3 6.0 83 1.3 SW 13 17 7 9 1024.5 1024.9 0.0
01/06:00pm 8.8 6.1 5.7 81 1.4 WSW 9 11 5 6 1024.1 1024.5 0.0
01/05:30pm 8.9 5.4 5.3 78 1.6 SSW 13 17 7 9 1023.6 1023.9 0.0
01/05:00pm 9.1 5.1 5.1 76 1.8 SW 15 20 8 11 1023.2 1023.6 0.0
01/04:30pm 9.3 4.5 4.7 73 2.1 SSW 19 22 10 12 1022.9 1023.3 0.0
01/04:00pm 9.4 4.4 4.6 72 2.2 SSW 20 28 11 15 1022.6 1023.0 0.0
01/03:30pm 9.6 4.3 4.8 72 2.2 SW 22 30 12 16 1022.4 1022.8 0.0
01/03:00pm 9.7 4.8 5.1 73 2.1 SW 20 30 11 16 1022.0 1022.4 0.0
01/02:30pm 9.6 3.9 5.0 73 2.1 SW 24 30 13 16 1021.9 1022.3 0.0
01/02:00pm 10.0 4.4 5.6 74 2.0 SW 24 32 13 17 1021.8 1022.2 0.0
01/01:30pm 9.3 3.4 5.7 78 1.7 SW 26 35 14 19 1021.8 1022.2 0.0
01/01:00pm 9.2 3.9 5.0 75 1.9 SW 22 30 12 16 1021.8 1022.2 0.0
01/12:30pm 9.0 3.8 5.6 79 1.6 SW 22 30 12 16 1021.8 1022.2 0.0
01/12:00pm 8.5 2.1 5.4 81 1.4 WSW 28 33 15 18 1021.7 1022.1 0.0
01/11:30am 8.7 2.3 5.3 79 1.6 SW 28 35 15 19 1022.3 1022.7 0.0
01/11:00am 8.6 1.7 4.8 77 1.7 SW 30 39 16 21 1022.0 1022.4 0.0
01/10:30am 9.0 3.0 5.4 78 1.7 W 26 33 14 18 1021.9 1022.3 0.0
01/10:00am 8.4 3.2 5.3 81 1.4 WSW 22 32 12 17 1021.9 1022.3 0.0
01/09:30am 8.6 3.8 5.5 81 1.4 W 20 28 11 15 1021.8 1022.0 0.0
01/09:00am 7.8 3.6 5.8 87 0.9 W 17 20 9 11 1021.6 1021.8 0.6
01/08:30am 6.4 4.1 5.7 95 0.3 W 7 11 4 6 1021.3 1021.5 0.6
01/08:22am 5.9 3.8 5.6 98 0.1 W 6 9 3 5 1021.4 1021.6 0.6
01/08:00am 4.4 3.1 4.1 98 0.1 CALM 0 0 0 0 1021.2 1021.4 0.6
01/07:30am 3.7 1.1 3.4 98 0.1 W 6 9 3 5 1020.8 1021.0 0.6
01/07:00am 3.0 1.4 2.6 97 0.2 CALM 0 0 0 0 1020.4 1020.6 0.6
01/06:30am 3.8 2.4 3.4 97 0.2 CALM 0 0 0 0 1020.1 1020.3 0.6
01/06:03am 3.6 0.9 2.9 95 0.3 W 6 7 3 4 1019.4 1019.7 0.6
01/06:00am 3.6 0.9 2.9 95 0.3 W 6 7 3 4 1019.3 1019.6 0.6
01/05:30am 5.0 1.6 4.1 94 0.4 WSW 11 13 6 7 1018.7 1018.9 0.6
01/05:00am 6.2 3.0 5.0 92 0.5 WSW 11 15 6 8 1018.6 1018.8 0.6
01/04:30am 7.0 3.2 5.8 92 0.5 WSW 15 17 8 9 1018.3 1018.5 0.4
01/04:00am 7.0 4.3 5.8 92 0.5 SW 9 11 5 6 1018.2 1018.4 0.4
01/03:30am 7.3 4.3 5.9 91 0.6 WSW 11 15 6 8 1018.1 1018.3 0.4
01/03:00am 7.6 3.0 5.7 88 0.9 WSW 19 26 10 14 1018.3 1018.5 0.2
01/02:30am 7.5 3.3 5.5 87 0.9 WSW 17 30 9 16 1018.3 1018.5 0.2
01/02:00am 7.0 3.4 4.8 86 1.0 WNW 13 17 7 9 1017.8 1018.0 0.2
01/01:30am 6.4 2.7 4.6 88 0.8 NNW 13 17 7 9 1017.6 1017.8 0.2
01/01:00am 6.1 2.7 4.1 87 0.9 NW 11 17 6 9 1017.7 1017.9 0.2
01/12:30am 6.5 2.8 4.5 87 0.9 NNW 13 17 7 9 1017.8 1018.0 0.2
01/12:00am 7.3 3.7 5.0 85 1.0 NW 13 17 7 9 1018.1 1018.3 0.2
 
Date/Time
EST
Temp
°C
App
Temp
°C
Dew
Point
°C
Rel
Hum
%
Delta-T
°C
Wind Press
QNH
hPa
Press
MSL
hPa
Rain since
9am
mm
Dir  Spd
km/h
Gust
km/h
Spd
kts
Gust
kts
30/11:30pm 7.4 3.8 5.0 85 1.1 NW 13 17 7 9 1018.2 1018.4 0.2
30/11:00pm 7.5 3.5 5.1 85 1.1 NNW 15 20 8 11 1018.1 1018.3 0.2
30/10:30pm 7.6 4.2 5.7 88 0.9 NW 13 17 7 9 1018.3 1018.5 0.2
30/10:00pm 7.1 4.0 5.7 91 0.6 NW 11 15 6 8 1018.4 1018.6 0.2
30/09:30pm 5.8 2.5 4.6 92 0.5 NNW 11 13 6 7 1018.5 1018.7 0.2
30/09:00pm 6.4 4.0 5.4 93 0.4 NNW 7 9 4 5 1018.5 1018.7 0.2
30/08:30pm 6.1 3.7 4.4 89 0.7 NNW 6 7 3 4 1018.5 1018.7 0.0
30/08:00pm 7.0 4.5 5.0 87 0.9 NW 7 9 4 5 1018.4 1018.6 0.0
30/07:30pm 7.3 4.5 5.3 87 0.9 NW 9 11 5 6 1018.3 1018.5 0.0
30/07:00pm 6.6 2.9 4.6 87 0.9 N 13 17 7 9 1018.3 1018.5 0.0
30/06:30pm 7.5 4.2 4.6 82 1.3 NNW 11 11 6 6 1018.3 1018.5 0.0
30/06:00pm 7.1 4.1 4.1 81 1.3 NNW 9 11 5 6 1017.9 1018.1 0.0
30/05:30pm 8.2 4.1 4.4 77 1.7 NNW 15 15 8 8 1017.4 1017.6 0.0
30/05:00pm 10.4 6.0 4.8 68 2.6 NW 17 20 9 11 1017.7 1017.9 0.0
30/04:30pm 11.5 7.2 5.2 65 2.9 NNW 17 22 9 12 1017.4 1017.6 0.0
30/04:00pm 11.9 7.0 5.1 63 3.2 NNW 20 26 11 14 1017.9 1018.1 0.0
30/03:30pm 12.6 7.7 5.3 61 3.4 NNW 20 30 11 16 1018.0 1018.2 0.0
30/03:00pm 12.0 6.3 5.0 62 3.3 NNW 24 32 13 17 1018.1 1018.3 0.0
30/02:30pm 12.7 7.0 4.9 59 3.6 NW 24 32 13 17 1018.5 1018.7 0.0
30/02:00pm 12.6 7.6 6.4 66 3.0 NW 22 30 12 16 1018.9 1019.1 0.0
30/01:30pm 11.6 5.8 4.6 62 3.2 NNW 24 32 13 17 1019.4 1019.7 0.0
30/01:00pm 11.9 5.8 4.9 62 3.2 NW 26 35 14 19 1020.3 1020.5 0.0
30/12:30pm 11.7 5.3 5.1 64 3.1 NNW 28 35 15 19 1021.0 1021.2 0.0
30/12:00pm 12.3 7.2 6.1 66 3.0 NW 22 30 12 16 1021.7 1021.9 0.0
30/11:30am 11.5 6.0 5.8 68 2.7 NNW 24 32 13 17 1022.1 1022.4 0.0
30/11:00am 10.2 7.3 6.7 79 1.7 NW 11 17 6 9 1022.9 1023.2 0.0
30/10:30am 8.5 6.4 5.8 83 1.2 NNW 6 11 3 6 1023.5 1023.7 0.0
30/10:00am 6.3 4.4 4.8 90 0.7 ENE 4 7 2 4 1023.9 1024.1 0.0
30/09:30am 5.1 2.4 3.6 90 0.6 ENE 7 9 4 5 1023.9 1024.1 0.0
30/09:00am 4.7 2.0 3.5 92 0.5 E 7 9 4 5 1023.7 1023.9 0.0
30/08:30am 3.4 0.6 3.0 97 0.2 ESE 7 9 4 5 1023.5 1023.7 0.0
30/08:00am 0.1 -2.3 -0.3 97 0.2 ESE 2 7 1 4 1023.2 1023.5 0.0
30/07:44am 0.0 -2.0 -0.4 97 0.1 CALM 0 0 0 0 1023.1 1023.4 0.0
30/07:30am -0.5 -2.6 -1.1 96 0.2 CALM 0 0 0 0 1022.9 1023.2 0.0
30/07:23am -1.8 -4.1 -2.5 95 0.2 CALM 0 0 0 0 1022.8 1023.1 0.0
30/07:00am -1.4 -5.0 -2.1 95 0.2 ESE 7 9 4 5 1022.4 1022.7 0.0
30/06:30am -0.6 -4.5 -1.2 96 0.2 ESE 9 13 5 7 1022.2 1022.5 0.0
30/06:00am -0.5 -5.1 -1.1 96 0.2 ESE 13 15 7 8 1022.1 1022.4 0.0
30/05:30am -0.4 -4.2 -1.0 96 0.2 E 9 11 5 6 1022.3 1022.6 0.0
30/05:00am -0.8 -4.7 -1.4 96 0.2 ENE 9 13 5 7 1022.1 1022.4 0.0
30/04:30am -0.9 -4.8 -1.3 97 0.1 ENE 9 11 5 6 1022.0 1022.2 0.0
30/04:00am -0.7 -4.9 -1.1 97 0.1 E 11 13 6 7 1022.2 1022.5 0.0
30/03:30am -0.1 -4.2 -0.5 97 0.1 ESE 11 13 6 7 1022.5 1022.8 0.0
30/03:00am -0.5 -4.3 -0.9 97 0.1 ENE 9 11 5 6 1022.9 1023.2 0.0
30/02:33am -0.9 -4.4 -1.3 97 0.1 ESE 7 9 4 5 1023.1 1023.4 0.0
30/02:30am -0.7 -4.2 -1.1 97 0.1 ESE 7 9 4 5 1023.2 1023.5 0.0
30/02:00am 0.0 -3.4 -0.4 97 0.1 ESE 7 9 4 5 1023.5 1023.7 0.0
30/01:30am -0.1 -3.5 -0.5 97 0.1 E 7 9 4 5 1023.7 1023.9 0.0
30/01:00am -0.4 -4.6 -1.0 96 0.2 ENE 11 11 6 6 1024.0 1024.2 0.0
30/12:30am 0.6 -2.7 -0.1 95 0.3 ESE 7 9 4 5 1024.5 1024.7 0.0
30/12:24am 0.8 -2.9 0.1 95 0.3 SE 9 11 5 6 1024.6 1024.8 0.0
30/12:00am 1.2 -2.0 0.5 95 0.3 SE 7 11 4 6 1024.7 1024.9 0.0
 
Date/Time
EST
Temp
°C
App
Temp
°C
Dew
Point
°C
Rel
Hum
%
Delta-T
°C
Wind Press
QNH
hPa
Press
MSL
hPa
Rain since
9am
mm
Dir  Spd
km/h
Gust
km/h
Spd
kts
Gust
kts
29/11:30pm 1.2 -2.9 0.0 92 0.4 ESE 11 15 6 8 1024.8 1025.0 0.0
29/11:00pm 2.9 -0.4 2.2 95 0.3 E 9 9 5 5 1024.9 1025.1 0.0
29/10:30pm 2.2 -2.1 1.3 94 0.3 E 13 13 7 7 1025.0 1025.2 0.0
29/10:00pm 2.3 -1.6 1.4 94 0.3 NE 11 13 6 7 1025.2 1025.5 0.0
29/09:30pm 3.2 0.2 1.9 91 0.5 NE 7 9 4 5 1025.4 1025.7 0.0
29/09:00pm 4.1 2.6 2.9 92 0.5 CALM 0 0 0 0 1025.5 1025.8 0.0
29/08:30pm 4.2 2.7 2.9 91 0.5 CALM 0 0 0 0 1025.6 1025.9 0.0
29/08:00pm 5.4 3.6 3.3 86 0.9 ENE 2 6 1 3 1025.7 1026.0 0.0
29/07:30pm 4.7 1.4 2.4 85 0.9 ESE 9 9 5 5 1025.6 1025.9 0.0

Other Formats:

Comma delimited format used in spreadsheet applications
http://www.bom.gov.au/fwo/IDN60801/IDN60801.95719.axf

JavaScript Object Notation format (JSON) in row-major order
http://www.bom.gov.au/fwo/IDN60801/IDN60801.95719.json